• Join FlightAware (Why Join?)
  • Login
  • US Flag 
01:48AM EST


 

Airport Tracker/Info


-or-


 

Live Flight TrackerFlight Track Log ✈ BJS439 ✈ 21-Apr-2013 ✈ KTEB - KDAL

Flight Track Log - Related Links

Times and Time Zones

All times are in EDT time to prevent confusion due to time zone crossing. See the BJS439 flight status page for this flight to view local times or setup timezone preferences in your user account.

Time Position Orientation Groundspeed Altitude Reporting Facility
EDT Latitude Longitude Course Direction KTS MPH feet Rate Location/Type
11:55AM 40.9000 -74.0500 270° West 183 211 2,200  Level New York TRACON
11:56AM 40.9000 -74.1000 270° West 196 226 5,100 1,860 Climbing New York TRACON
11:57AM 40.8833 -74.2000 258° West 256 295 6,000 1,320 Climbing New York TRACON
11:58AM 40.8667 -74.2833 255° West 267 307 7,800 2,040 Climbing New York TRACON
11:59AM 40.8333 -74.3833 246° West 268 308 10,100 2,580 Climbing New York TRACON
12:00PM 40.7000 -74.8903 270° West  Level FlightAware Approximate
12:01PM 40.7792 -74.6514 255° West 328 377 16,900  Level New York Center
12:02PM 40.7544 -74.7653 254° West 350 403 17,000  Climbing New York Center
12:03PM 40.7253 -74.8894 253° West 360 414 17,000 420 Level New York Center
12:04PM 40.6978 -75.0136 254° West 355 409 17,900 2,220 Climbing New York Center
12:05PM 40.6556 -75.1422 247° West 355 409 21,500 3,600 Climbing New York Center
12:06PM 40.6014 -75.2536 237° Southwest 362 417 25,200 3,360 Climbing New York Center
12:07PM 40.5536 -75.3625 240° Southwest 362 417 28,400 2,580 Climbing New York Center
12:08PM 40.5056 -75.4714 240° Southwest 357 411 30,400 2,100 Climbing New York Center
12:09PM 40.4553 -75.5825 239° Southwest 352 405 32,700 2,220 Climbing New York Center
12:10PM 40.4069 -75.6908 240° Southwest 352 405 34,900 2,040 Climbing New York Center
12:11PM 40.3589 -75.7908 238° Southwest 342 394 36,800 1,380 Climbing New York Center
12:12PM 40.3131 -75.8883 238° Southwest 329 379 37,800 960 Climbing New York Center
12:13PM 40.2586 -75.9903 235° Southwest 334 384 38,800 720 Climbing New York Center
12:14PM 40.2100 -76.0983 240° Southwest 339 390 39,300 480 Climbing New York Center
12:15PM 40.1656 -76.2061 242° Southwest 339 390 39,800 540 Climbing New York Center
12:16PM 40.1108 -76.3050 234° Southwest 353 406 40,500 780 Climbing New York Center
12:18PM 39.9844 -76.5853 240° Southwest 363 418 42,500 720 Climbing Washington Center
12:19PM 39.9358 -76.6872 238° Southwest 357 411 43,000 240 Climbing Washington Center
12:20PM 39.8869 -76.7839 237° Southwest 352 405 43,000  Level Washington Center
12:21PM 39.8336 -76.8967 238° Southwest 358 412 43,000  Level Washington Center
12:22PM 39.7825 -77.0117 240° Southwest 363 418 43,000  Level Washington Center
12:23PM 39.7267 -77.1319 239° Southwest 375 432 43,000  Level Washington Center
12:24PM 39.6689 -77.2494 237° Southwest 387 445 43,000  Level Washington Center
12:25PM 39.6131 -77.3694 239° Southwest 387 445 43,000  Level Washington Center
12:26PM 39.5569 -77.4892 239° Southwest 387 445 43,000  Level Washington Center
12:27PM 39.5011 -77.6061 238° Southwest 387 445 43,000  Level Washington Center
12:28PM 39.4447 -77.7228 238° Southwest 387 445 43,000  Level Washington Center
12:29PM 39.3864 -77.8419 238° Southwest 387 445 43,000  Level Washington Center
12:30PM 39.3381 -77.9664 243° Southwest 387 445 43,000  Level Washington Center
12:31PM 39.2853 -78.1042 244° Southwest 387 445 43,000  Level Washington Center
12:32PM 39.2514 -78.2342 251° West 392 451 43,000  Level Washington Center
12:33PM 39.2211 -78.3672 254° West 392 451 43,000  Level Washington Center
12:34PM 39.1889 -78.4997 253° West 387 445 43,000  Level Washington Center
12:35PM 39.1564 -78.6350 253° West 387 445 43,000  Level Washington Center
12:36PM 39.1258 -78.7703 254° West 393 452 43,000  Level Washington Center
12:37PM 39.0931 -78.9025 252° West 393 452 43,000  Level Washington Center
12:38PM 39.0600 -79.0347 252° West 393 452 43,000  Level Washington Center
12:39PM 39.0269 -79.1669 252° West 393 452 43,000  Level Washington Center
12:40PM 38.9939 -79.3014 252° West 393 452 43,000  Level Washington Center
12:41PM 38.9625 -79.4333 253° West 393 452 43,000  Level Washington Center
12:42PM 38.9289 -79.5678 252° West 393 452 43,000  Level Washington Center
12:43PM 38.8950 -79.7072 253° West 406 467 43,000  Level Washington Center
12:44PM 38.8611 -79.8414 252° West 406 467 43,000  Level Washington Center
12:45PM 38.8297 -79.9622 252° West 400 460 43,000  Level Washington Center
12:46PM 38.7978 -80.0961 253° West 395 455 43,000  Level Washington Center
12:47PM 38.7642 -80.2111 249° West 395 455 43,000  Level Indianapolis Center
12:48PM 38.7300 -80.3450 252° West 395 455 43,000  Level Indianapolis Center
12:49PM 38.6942 -80.4797 251° West 398 458 43,000  Level Indianapolis Center
12:50PM 38.6597 -80.6131 252° West 395 455 43,000  Level Indianapolis Center
12:51PM 38.6236 -80.7469 251° West 397 457 43,000  Level Indianapolis Center
12:52PM 38.5878 -80.8819 251° West 398 458 43,000  Level Indianapolis Center
12:53PM 38.5522 -81.0178 252° West 400 460 43,000  Level Indianapolis Center
12:54PM 38.5150 -81.1533 251° West 401 461 43,000  Level Indianapolis Center
12:55PM 38.4717 -81.3183 252° West 404 465 43,000  Level Indianapolis Center
12:56PM 38.4342 -81.4567 251° West 406 467 43,000  Level Indianapolis Center
12:58PM 38.3975 -81.5922 251° West 401 461 43,000  Level Indianapolis Center
12:59PM 38.3606 -81.7308 251° West 408 470 43,000  Level Indianapolis Center
01:00PM 38.3233 -81.8650 251° West 402 463 43,000  Level Indianapolis Center
01:01PM 38.2850 -82.0000 250° West 402 463 43,000  Level Indianapolis Center
01:02PM 38.2472 -82.1358 251° West 406 467 43,000  Level Indianapolis Center
01:03PM 38.2100 -82.2700 251° West 402 463 43,000  Level Indianapolis Center
01:04PM 38.1703 -82.4056 250° West 408 470 43,000  Level Indianapolis Center
01:05PM 38.1236 -82.5694 250° West 405 466 43,000  Level Indianapolis Center
01:06PM 38.0853 -82.7036 250° West 405 466 43,000  Level Indianapolis Center
01:07PM 38.0469 -82.8372 250° West 404 465 43,000  Level Indianapolis Center
01:08PM 38.0072 -82.9708 249° West 405 466 43,000  Level Indianapolis Center
01:09PM 37.9678 -83.1044 250° West 405 466 43,000  Level Indianapolis Center
01:10PM 37.9294 -83.2389 250° West 406 467 43,000  Level Indianapolis Center
01:11PM 37.8831 -83.3931 249° West 404 465 43,000  Level Indianapolis Center
01:12PM 37.8433 -83.5272 249° West 404 465 43,000  Level Indianapolis Center
01:13PM 37.8031 -83.6611 249° West 405 466 43,000  Level Indianapolis Center
01:14PM 37.7622 -83.7942 249° West 408 470 43,000  Level Indianapolis Center
01:15PM 37.7231 -83.9264 250° West 403 464 43,000  Level Indianapolis Center
01:16PM 37.6767 -84.0817 249° West 405 466 43,000  Level Indianapolis Center
01:17PM 37.6350 -84.2147 248° West 407 468 43,000  Level Indianapolis Center
01:18PM 37.5942 -84.3481 249° West 406 467 43,000  Level Indianapolis Center
01:19PM 37.5544 -84.4819 250° West 409 471 43,000  Level Indianapolis Center
01:20PM 37.5114 -84.6136 248° West 407 468 43,000  Level Indianapolis Center
01:21PM 37.4706 -84.7469 249° West 408 470 43,000  Level Indianapolis Center
01:22PM 37.4217 -84.9022 248° West 410 472 43,000  Level Indianapolis Center
01:23PM 37.3814 -85.0353 249° West 408 470 43,000  Level Indianapolis Center
01:24PM 37.3394 -85.1675 248° West 406 467 43,000  Level Indianapolis Center
01:25PM 37.2967 -85.3000 248° West 410 472 43,000  Level Indianapolis Center
01:26PM 37.2547 -85.4328 248° West 409 471 43,000  Level Indianapolis Center
01:27PM 37.2125 -85.5697 249° West 412 474 43,000  Level Indianapolis Center
01:28PM 37.1844 -85.6575 248° West 420 483 43,000  Level Memphis Center
01:29PM 37.1378 -85.8033 248° West 420 483 43,000  Level Memphis Center
01:30PM 37.0967 -85.9331 248° West 420 483 43,000  Level Memphis Center
01:31PM 37.0514 -86.0656 247° West 420 483 43,000  Level Memphis Center
01:32PM 37.0100 -86.1950 248° West 414 476 43,000  Level Memphis Center
01:33PM 36.9683 -86.3244 248° West 414 476 43,000  Level Memphis Center
01:34PM 36.9267 -86.4539 248° West 414 476 43,000  Level Memphis Center
01:35PM 36.8767 -86.5858 245° Southwest 414 476 43,000  Level Memphis Center
01:36PM 36.8325 -86.7125 246° West 409 471 43,000  Level Memphis Center
01:37PM 36.7883 -86.8414 247° West 404 465 43,000  Level Memphis Center
01:38PM 36.7417 -86.9703 246° West 404 465 43,000  Level Memphis Center
01:39PM 36.6931 -87.0992 245° Southwest 404 465 43,000  Level Memphis Center
01:40PM 36.6486 -87.2275 247° West 404 465 43,000  Level Memphis Center
01:41PM 36.5975 -87.3564 244° Southwest 404 465 43,000  Level Memphis Center
01:42PM 36.5506 -87.4844 246° West 404 465 43,000  Level Memphis Center
01:43PM 36.5072 -87.5997 245° Southwest 404 465 43,000  Level Memphis Center
01:44PM 36.4600 -87.7278 245° Southwest 409 471 43,000  Level Memphis Center
01:45PM 36.4169 -87.8581 248° West 409 471 43,000  Level Memphis Center
01:46PM 36.3736 -87.9908 248° West 415 478 43,000  Level Memphis Center
01:47PM 36.3283 -88.1339 249° West 420 483 43,000  Level Memphis Center
01:48PM 36.2886 -88.2483 247° West 415 478 43,000  Level Memphis Center
01:49PM 36.2469 -88.3806 249° West 415 478 43,000  Level Memphis Center
01:50PM 36.2011 -88.5103 246° West 415 478 43,000  Level Memphis Center
01:51PM 36.1572 -88.6425 248° West 415 478 43,000  Level Memphis Center
01:52PM 36.1131 -88.7717 247° West 415 478 43,000  Level Memphis Center
01:53PM 36.0708 -88.9036 248° West 415 478 43,000  Level Memphis Center
01:54PM 36.0242 -89.0328 246° West 415 478 43,000  Level Memphis Center
01:55PM 35.9797 -89.1617 247° West 415 478 43,000  Level Memphis Center
01:56PM 35.9350 -89.2931 247° West 415 478 43,000  Level Memphis Center
01:57PM 35.8944 -89.4217 249° West 415 478 43,000  Level Memphis Center
01:58PM 35.8494 -89.5503 247° West 415 478 43,000  Level Memphis Center
01:59PM 35.8064 -89.6761 247° West 415 478 43,000  Level Memphis Center
02:00PM 35.7611 -89.8069 247° West 415 478 43,000  Level Memphis Center
02:01PM 35.7158 -89.9350 246° West 415 478 43,000  Level Memphis Center
02:02PM 35.6744 -90.0733 250° West 405 466 43,000  Level Memphis Center
02:03PM 35.6350 -90.1883 247° West 405 466 43,000  Level Memphis Center
02:04PM 35.5894 -90.3189 247° West 410 472 43,000  Level Memphis Center
02:05PM 35.5433 -90.4439 246° West 410 472 43,000  Level Memphis Center
02:06PM 35.4994 -90.5739 248° West 410 472 43,000  Level Memphis Center
02:07PM 35.4533 -90.7011 246° West 410 472 43,000  Level Memphis Center
02:08PM 35.4092 -90.8258 247° West 415 478 43,000  Level Memphis Center
02:09PM 35.3606 -90.9553 245° Southwest 415 478 43,000  Level Memphis Center
02:10PM 35.3119 -91.0925 247° West 415 478 43,000  Level Memphis Center
02:11PM 35.2653 -91.2192 246° West 415 478 43,000  Level Memphis Center
02:12PM 35.2183 -91.3458 246° West 415 478 43,000  Level Memphis Center
02:13PM 35.1736 -91.4722 247° West 415 478 43,000  Level Memphis Center
02:14PM 35.1222 -91.6011 244° Southwest 415 478 43,000  Level Memphis Center
02:15PM 35.0769 -91.7297 247° West 415 478 43,000  Level Memphis Center
02:16PM 35.0339 -91.8558 247° West 415 478 43,000  Level Memphis Center
02:17PM 34.9822 -91.9867 244° Southwest 415 478 43,000  Level Memphis Center
02:18PM 34.9344 -92.1150 246° West 415 478 43,000  Level Memphis Center
02:19PM 34.8933 -92.2206 245° Southwest 421 484 43,000  Level Memphis Center
02:20PM 34.8433 -92.3586 246° West 416 479 43,000  Level Memphis Center
02:21PM 34.7953 -92.4889 246° West 416 479 43,000  Level Memphis Center
02:22PM 34.7492 -92.6142 246° West 416 479 43,000  Level Memphis Center
02:23PM 34.6989 -92.7392 244° Southwest 416 479 43,000  Level Memphis Center
02:24PM 34.6525 -92.8667 246° West 416 479 43,000  Level Memphis Center
02:25PM 34.6042 -92.9939 245° Southwest 416 479 43,000  Level Memphis Center
02:26PM 34.5575 -93.1186 246° West 416 479 43,000  Level Memphis Center
02:27PM 34.5089 -93.2381 244° Southwest 410 472 43,000  Level Memphis Center
02:29PM 34.4283 -93.4583 246° West 407 468 43,000  Level Fort Worth Center
02:30PM 34.3819 -93.5811 245° Southwest 407 468 43,000  Level Fort Worth Center
02:31PM 34.3333 -93.7014 244° Southwest 407 468 43,000  Level Fort Worth Center
02:32PM 34.2869 -93.8242 245° Southwest 407 468 43,000  Level Fort Worth Center
02:33PM 34.2400 -93.9417 244° Southwest 401 461 43,000  Level Fort Worth Center
02:34PM 34.1914 -94.0642 244° Southwest 401 461 43,000  Level Fort Worth Center
02:35PM 34.1444 -94.1864 245° Southwest 401 461 43,000  Level Fort Worth Center
02:36PM 34.0953 -94.3061 244° Southwest 401 461 43,000 -1,080 Level Fort Worth Center
02:37PM 34.0481 -94.4281 245° Southwest 406 467 40,900 -2,400 Descending Fort Worth Center
02:38PM 33.9969 -94.5525 244° Southwest 406 467 38,300 -2,820 Descending Fort Worth Center
02:39PM 33.9472 -94.6744 244° Southwest 406 467 35,300 -3,000 Descending Fort Worth Center
02:40PM 33.8997 -94.7933 244° Southwest 401 461 32,300 -3,000 Descending Fort Worth Center
02:41PM 33.8481 -94.9150 243° Southwest 406 467 29,300 -3,000 Descending Fort Worth Center
02:42PM 33.8003 -95.0389 245° Southwest 406 467 26,300 -2,640 Descending Fort Worth Center
02:43PM 33.7483 -95.1628 243° Southwest 406 467 24,100 -1,200 Descending Fort Worth Center
02:44PM 33.7003 -95.2839 245° Southwest 411 473 24,000 -60 Descending Fort Worth Center
02:45PM 33.6481 -95.4047 243° Southwest 411 473 24,000  Level Fort Worth Center
02:46PM 33.5978 -95.5306 244° Southwest 411 473 24,000 -300 Level Fort Worth Center
02:47PM 33.5456 -95.6614 244° Southwest 400 460 23,500 -1,620 Descending Fort Worth Center
02:48PM 33.5011 -95.7694 244° Southwest 400 460 20,800 -2,940 Descending Fort Worth Center
02:49PM 33.4442 -95.9025 243° Southwest 405 466 17,700 -2,940 Descending Fort Worth Center
02:50PM 33.4017 -96.0050 244° Southwest 395 455 15,000 -3,000 Descending Fort Worth Center
02:51PM 33.3528 -96.1228 244° Southwest 371 427 11,800 -2,460 Descending Fort Worth Center
02:52PM 33.3181 -96.2078 244° Southwest 340 391 10,100 -1,440 Descending Fort Worth Center
02:53PM 33.2794 -96.2978 243° Southwest 298 343 9,000 -1,260 Descending Fort Worth Center
02:54PM 33.2444 -96.3678 239° Southwest 281 323 7,600 -1,680 Descending Fort Worth Center
02:55PM 33.2014 -96.4528 239° Southwest 281 323 5,700 -1,560 Descending Fort Worth Center
02:56PM 33.1642 -96.5200 237° Southwest 272 313 4,500 -900 Descending Fort Worth Center
02:57PM 33.1272 -96.5925 239° Southwest 267 307 4,000 -300 Descending Fort Worth Center
02:58PM 33.0775 -96.6647 231° Southwest 262 302 4,000  Level Fort Worth Center
02:59PM 33.0361 -96.7244 230° Southwest 262 302 4,000  Level Fort Worth Center
03:00PM 32.9947 -96.7867 232° Southwest 244 281 4,000 -240 Level Fort Worth Center
03:01PM 32.9636 -96.8317 231° Southwest 215 247 3,600 -720 Descending Fort Worth Center
03:02PM 32.9333 -96.8833 235° Southwest 190 219 2,600 -1,080 Descending Dallas / Fort Worth TRACON
03:03PM 32.8833 -96.8833 180° South 150 173 1,500 -960 Descending Dallas / Fort Worth TRACON
03:04PM 32.8667 -96.8667 140° Southeast 127 146 800 -780 Descending Dallas / Fort Worth TRACON